createdAt,value
2023-01-17T00:01:46.500Z,97237.06
2023-01-17T00:04:32.211Z,97237.06
2023-01-17T00:07:17.424Z,97233.78
2023-01-17T00:09:53.374Z,97240.97
2023-01-17T00:12:27.601Z,97237.47
2023-01-17T00:14:55.819Z,97248.41
2023-01-17T00:17:23.537Z,97247.53
2023-01-17T00:20:09.176Z,97246.63
2023-01-17T00:22:55.147Z,97239.59
2023-01-17T00:25:55.694Z,97244.00
2023-01-17T00:28:23.477Z,97245.91
2023-01-17T00:30:50.464Z,97248.41
2023-01-17T00:33:17.381Z,97244.06
2023-01-17T00:35:44.533Z,97248.41
2023-01-17T00:38:14.773Z,97250.13
2023-01-17T00:40:43.972Z,97251.03
2023-01-17T00:43:31.921Z,97255.38
2023-01-17T00:46:17.548Z,97262.47
2023-01-17T00:49:02.891Z,97257.34
2023-01-17T00:51:50.048Z,97260.91
2023-01-17T00:54:35.591Z,97267.09
2023-01-17T00:57:21.441Z,97263.69
2023-01-17T01:00:07.136Z,97266.31
2023-01-17T01:02:53.473Z,97268.09
2023-01-17T01:05:39.940Z,97270.72
2023-01-17T01:08:45.423Z,97270.72
2023-01-17T01:11:37.710Z,97269.06
2023-01-17T01:14:25.326Z,97275.25
2023-01-17T01:17:10.538Z,97274.31
2023-01-17T01:19:55.640Z,97276.94
2023-01-17T01:22:40.843Z,97277.91
2023-01-17T01:25:26.655Z,97286.72
2023-01-17T01:28:11.859Z,97287.75
2023-01-17T01:30:57.079Z,97293.13
2023-01-17T01:33:23.865Z,97303.78
2023-01-17T01:35:55.467Z,97308.19
2023-01-17T01:38:24.797Z,97307.47
2023-01-17T01:40:55.074Z,97304.03
2023-01-17T01:43:42.508Z,97316.38
2023-01-17T01:46:14.531Z,97300.63
2023-01-17T01:48:49.347Z,97295.41
2023-01-17T01:51:24.132Z,97304.31
2023-01-17T01:53:54.968Z,97307.84
2023-01-17T01:56:23.520Z,97298.31
2023-01-17T01:58:52.128Z,97301.84
2023-01-17T02:01:19.067Z,97310.66
2023-01-17T02:03:46.579Z,97308.06
2023-01-17T02:06:40.010Z,97312.63
2023-01-17T02:09:10.590Z,97316.16
2023-01-17T02:11:38.976Z,97320.59
2023-01-17T02:14:06.500Z,97319.78
2023-01-17T02:17:03.940Z,97324.22
2023-01-17T02:20:14.891Z,97325.22
2023-01-17T02:23:58.611Z,97331.47
2023-01-17T02:26:53.975Z,97332.38
2023-01-17T02:30:15.672Z,97331.56
2023-01-17T02:33:14.861Z,97339.47
2023-01-17T02:35:54.639Z,97354.47
2023-01-17T02:38:40.395Z,97346.63
2023-01-17T02:41:15.564Z,97354.53
2023-01-17T02:43:42.490Z,97359.84
2023-01-17T02:46:09.976Z,97370.34
2023-01-17T02:48:37.805Z,97364.19
2023-01-17T02:51:44.830Z,97378.31
2023-01-17T02:54:52.307Z,97378.34
2023-01-17T02:57:46.163Z,97383.78
2023-01-17T03:00:27.389Z,97391.84
2023-01-17T03:03:29.968Z,97391.88
2023-01-17T03:06:29.179Z,97399.72
2023-01-17T03:08:55.932Z,97394.66
2023-01-17T03:11:22.973Z,97410.44
2023-01-17T03:13:56.694Z,97404.22
2023-01-17T03:16:26.673Z,97405.91
2023-01-17T03:18:56.057Z,97413.78
2023-01-17T03:21:24.051Z,97420.00
2023-01-17T03:23:50.989Z,97412.09
2023-01-17T03:26:18.192Z,97423.44
2023-01-17T03:28:45.177Z,97416.41
2023-01-17T03:31:19.942Z,97415.50
2023-01-17T03:33:46.899Z,97414.72
2023-01-17T03:36:13.730Z,97420.81
2023-01-17T03:38:40.517Z,97429.69
2023-01-17T03:41:07.481Z,97438.44
2023-01-17T03:43:34.376Z,97439.41
2023-01-17T03:46:23.242Z,97441.97
2023-01-17T03:48:50.460Z,97445.53
2023-01-17T03:51:17.754Z,97439.41
2023-01-17T03:53:46.849Z,97456.84
2023-01-17T03:56:14.312Z,97446.34
2023-01-17T03:58:41.092Z,97449.84
2023-01-17T04:01:08.073Z,97461.22
2023-01-17T04:03:34.883Z,97469.97
2023-01-17T04:06:01.659Z,97472.53
2023-01-17T04:08:28.432Z,97466.34
2023-01-17T04:10:55.179Z,97465.50
2023-01-17T04:13:22.036Z,97472.47
2023-01-17T04:15:50.480Z,97482.09
2023-01-17T04:18:19.585Z,97474.06
2023-01-17T04:20:46.864Z,97479.22
2023-01-17T04:23:13.657Z,97469.56
2023-01-17T04:25:40.645Z,97486.19
2023-01-17T04:28:07.464Z,97471.28
2023-01-17T04:30:34.282Z,97479.16
2023-01-17T04:33:01.526Z,97474.69
2023-01-17T04:35:31.105Z,97484.28
2023-01-17T04:37:58.143Z,97486.94
2023-01-17T04:40:26.400Z,97483.38
2023-01-17T04:42:54.353Z,97493.97
2023-01-17T04:45:21.565Z,97490.41
2023-01-17T04:47:48.376Z,97493.97
2023-01-17T04:50:15.525Z,97509.75
2023-01-17T04:52:42.351Z,97503.56
2023-01-17T04:55:09.287Z,97500.94
2023-01-17T04:57:36.340Z,97503.63
2023-01-17T05:00:04.378Z,97512.41
2023-01-17T05:02:31.196Z,97509.78
2023-01-17T05:04:58.065Z,97514.28
2023-01-17T05:07:24.852Z,97526.56
2023-01-17T05:09:51.633Z,97524.88
2023-01-17T05:12:18.386Z,97524.88
2023-01-17T05:14:45.142Z,97534.47
2023-01-17T05:17:11.958Z,97538.03
2023-01-17T05:19:38.727Z,97543.28
2023-01-17T05:22:15.001Z,97557.28
2023-01-17T05:24:47.233Z,97565.25
2023-01-17T05:27:14.983Z,97574.91
2023-01-17T05:29:41.801Z,97574.16
2023-01-17T05:32:08.773Z,97589.06
2023-01-17T05:34:35.555Z,97595.19
2023-01-17T05:37:02.549Z,97600.53
2023-01-17T05:39:30.863Z,97606.81
2023-01-17T05:41:58.096Z,97620.09
2023-01-17T05:44:24.913Z,97629.00
2023-01-17T05:46:51.670Z,97634.34
2023-01-17T05:49:18.440Z,97640.56
2023-01-17T05:51:45.174Z,97639.81
2023-01-17T05:54:11.977Z,97668.03
2023-01-17T05:56:38.721Z,97673.38
2023-01-17T05:59:05.496Z,97666.50
2023-01-17T06:01:32.245Z,97671.94
2023-01-17T06:03:59.041Z,97676.50
2023-01-17T06:06:25.799Z,97677.59
2023-01-17T06:08:52.593Z,97697.00
2023-01-17T06:11:19.395Z,97697.97
2023-01-17T06:13:48.648Z,97692.84
2023-01-17T06:16:15.574Z,97701.72
2023-01-17T06:18:42.341Z,97711.41
2023-01-17T06:21:09.119Z,97713.22
2023-01-17T06:23:35.907Z,97718.50
2023-01-17T06:26:04.457Z,97721.13
2023-01-17T06:28:31.515Z,97728.22
2023-01-17T06:30:59.786Z,97736.13
2023-01-17T06:33:26.892Z,97742.28
2023-01-17T06:35:54.120Z,97744.91
2023-01-17T06:38:21.243Z,97757.25
2023-01-17T06:40:48.346Z,97760.78
2023-01-17T06:43:15.613Z,97767.81
2023-01-17T06:45:42.428Z,97776.63
2023-01-17T06:48:09.198Z,97773.19
2023-01-17T06:50:35.954Z,97782.81
2023-01-17T06:53:06.769Z,97794.19
2023-01-17T06:55:35.104Z,97794.28
2023-01-17T06:58:02.860Z,97804.78
2023-01-17T07:00:31.393Z,97819.72
2023-01-17T07:02:58.350Z,97815.38
2023-01-17T07:05:25.205Z,97822.44
2023-01-17T07:07:53.026Z,97831.22
2023-01-17T07:10:19.863Z,97833.03
2023-01-17T07:12:46.877Z,97835.66
2023-01-17T07:15:13.973Z,97842.63
2023-01-17T07:17:40.837Z,97851.44
2023-01-17T07:20:08.683Z,97851.44
2023-01-17T07:22:37.491Z,97868.00
2023-01-17T07:25:04.773Z,97868.00
2023-01-17T07:27:33.370Z,97869.81
2023-01-17T07:30:00.425Z,97875.94
2023-01-17T07:32:27.878Z,97881.19
2023-01-17T07:34:57.332Z,97882.00
2023-01-17T07:37:25.854Z,97876.75
2023-01-17T07:39:53.712Z,97885.47
2023-01-17T07:42:23.206Z,97878.50
2023-01-17T07:44:50.753Z,97889.00
2023-01-17T07:47:17.635Z,97891.59
2023-01-17T07:49:44.500Z,97882.88
2023-01-17T07:52:11.292Z,97885.50
2023-01-17T07:54:38.326Z,97877.63
2023-01-17T07:57:05.139Z,97887.25
2023-01-17T07:59:33.701Z,97882.94
2023-01-17T08:02:00.824Z,97890.81
2023-01-17T08:04:28.945Z,97890.81
2023-01-17T08:09:49.539Z,97903.03
2023-01-17T08:12:16.980Z,97906.59
2023-01-17T08:14:43.756Z,97914.47
2023-01-17T08:17:16.395Z,97917.09
2023-01-17T08:19:43.449Z,97922.34
2023-01-17T08:22:12.006Z,97918.78
2023-01-17T08:24:39.043Z,97927.50
2023-01-17T08:27:05.845Z,97936.19
2023-01-17T08:29:32.594Z,97944.94
2023-01-17T08:31:59.385Z,97947.50
2023-01-17T08:34:26.372Z,97963.28
2023-01-17T08:36:53.907Z,97958.91
2023-01-17T08:39:21.865Z,97955.41
2023-01-17T08:41:48.623Z,97958.91
2023-01-17T08:44:15.803Z,97964.97
2023-01-17T08:46:44.305Z,97966.72
2023-01-17T08:49:12.286Z,97970.97
2023-01-17T08:51:39.863Z,97977.00
2023-01-17T08:54:07.312Z,97975.13
2023-01-17T08:56:35.515Z,97983.88
2023-01-17T08:59:03.006Z,97987.25
2023-01-17T09:01:30.361Z,97984.56
2023-01-17T09:03:57.294Z,97990.66
2023-01-17T09:06:24.061Z,97991.47
2023-01-17T09:08:54.615Z,98000.16
2023-01-17T09:11:21.532Z,98001.91
2023-01-17T09:13:48.278Z,98008.94
2023-01-17T09:16:15.123Z,98018.66
2023-01-17T09:18:41.929Z,98014.31
2023-01-17T09:21:17.610Z,98008.34
2023-01-17T09:23:44.878Z,98019.03
2023-01-17T09:26:24.265Z,98019.13
2023-01-17T09:28:51.961Z,98021.81
2023-01-17T09:31:21.330Z,98022.72
2023-01-17T09:33:49.667Z,98029.75
2023-01-17T09:36:16.545Z,98024.47
2023-01-17T09:38:43.811Z,98027.09
2023-01-17T09:41:24.232Z,98033.16
2023-01-17T09:44:03.199Z,98029.66
2023-01-17T09:46:37.609Z,98041.03
2023-01-17T09:49:19.547Z,98038.31
2023-01-17T09:51:46.382Z,98049.69
2023-01-17T09:54:25.341Z,98049.63
2023-01-17T09:57:14.650Z,98045.28
2023-01-17T10:00:03.196Z,98052.28
2023-01-17T10:02:45.642Z,98065.31
2023-01-17T10:05:26.661Z,98068.78
2023-01-17T10:08:46.471Z,98062.66
2023-01-17T10:11:54.385Z,98062.59
2023-01-17T10:14:49.201Z,98062.56
2023-01-17T10:17:38.967Z,98065.97
2023-01-17T10:20:34.156Z,98072.00
2023-01-17T10:23:25.131Z,98071.06
2023-01-17T10:25:54.596Z,98068.41
2023-01-17T10:28:42.006Z,98068.25
2023-01-17T10:31:20.563Z,98080.50
2023-01-17T10:33:52.966Z,98078.66
2023-01-17T10:36:31.196Z,98081.22
2023-01-17T10:39:04.125Z,98079.44
2023-01-17T10:42:00.676Z,98078.53
2023-01-17T10:44:49.749Z,98082.88
2023-01-17T10:47:24.563Z,98091.59
2023-01-17T10:49:54.327Z,98087.22
2023-01-17T10:52:56.698Z,98081.94
2023-01-17T10:55:51.206Z,98077.56
2023-01-17T10:58:18.013Z,98072.31
2023-01-17T11:00:55.686Z,98085.34
2023-01-17T11:03:23.817Z,98082.75
2023-01-17T11:06:24.018Z,98079.22
2023-01-17T11:09:00.477Z,98081.00
2023-01-17T11:11:33.588Z,98086.25
2023-01-17T11:14:05.464Z,98083.56
2023-01-17T11:16:32.857Z,98085.28
2023-01-17T11:19:36.344Z,98087.84
2023-01-17T11:22:06.618Z,98080.75
2023-01-17T11:24:40.103Z,98085.09
2023-01-17T11:27:08.448Z,98092.94
2023-01-17T11:29:39.009Z,98092.03
2023-01-17T11:32:31.100Z,98095.50
2023-01-17T11:35:12.750Z,98091.09
2023-01-17T11:37:51.057Z,98093.69
2023-01-17T11:40:36.271Z,98090.16
2023-01-17T11:43:12.666Z,98099.78
2023-01-17T11:45:40.941Z,98102.41
2023-01-17T11:48:11.106Z,98096.19
2023-01-17T11:50:54.115Z,98095.25
2023-01-17T11:53:30.392Z,98096.06
2023-01-17T11:56:17.035Z,98093.44
2023-01-17T11:58:45.812Z,98093.38
2023-01-17T12:02:31.942Z,98088.03
2023-01-17T12:05:29.831Z,98101.22
2023-01-17T12:08:08.424Z,98102.06
2023-01-17T12:11:02.551Z,98088.81
2023-01-17T12:14:02.471Z,98098.41
2023-01-17T12:16:57.704Z,98098.31
2023-01-17T12:19:34.287Z,98099.22
2023-01-17T12:22:20.881Z,98107.03
2023-01-17T12:25:25.629Z,98107.09
2023-01-17T12:28:44.514Z,98101.84
2023-01-17T12:32:05.861Z,98096.66
2023-01-17T12:34:43.554Z,98105.47
2023-01-17T12:37:37.271Z,98110.81
2023-01-17T12:40:24.577Z,98109.06
2023-01-17T12:43:12.798Z,98112.59
2023-01-17T12:45:43.927Z,98110.00
2023-01-17T12:48:15.834Z,98118.72
2023-01-17T12:51:01.439Z,98109.84
2023-01-17T12:54:16.435Z,98110.63
2023-01-17T12:57:02.635Z,98118.50
2023-01-17T13:00:10.488Z,98118.44
2023-01-17T13:02:52.365Z,98121.78
2023-01-17T13:05:32.439Z,98118.19
2023-01-17T13:08:34.801Z,98133.91
2023-01-17T13:11:18.558Z,98128.56
2023-01-17T13:13:47.235Z,98132.00
2023-01-17T13:16:43.412Z,98137.19
2023-01-17T13:19:33.557Z,98138.84
2023-01-17T13:22:03.483Z,98136.97
2023-01-17T13:24:45.090Z,98143.03
2023-01-17T13:27:59.022Z,98143.00
2023-01-17T13:31:05.269Z,98155.31
2023-01-17T13:33:57.571Z,98144.88
2023-01-17T13:36:40.769Z,98154.44
2023-01-17T13:39:47.389Z,98148.25
2023-01-17T13:42:23.801Z,98156.03
2023-01-17T13:44:50.852Z,98149.75
2023-01-17T13:47:17.475Z,98156.53
2023-01-17T13:49:53.340Z,98165.28
2023-01-17T13:52:19.987Z,98160.91
2023-01-17T13:55:04.861Z,98162.78
2023-01-17T13:57:43.222Z,98167.34
2023-01-17T14:00:21.329Z,98167.50
2023-01-17T14:02:50.333Z,98184.34
2023-01-17T14:05:22.846Z,98173.88
2023-01-17T14:07:57.104Z,98189.72
2023-01-17T14:10:29.432Z,98188.19
2023-01-17T14:12:56.930Z,98198.00
2023-01-17T14:15:29.606Z,98198.09
2023-01-17T14:18:03.099Z,98199.09
2023-01-17T14:20:48.150Z,98200.16
2023-01-17T14:23:27.448Z,98209.84
2023-01-17T14:25:57.536Z,98195.97
2023-01-17T14:28:32.412Z,98205.66
2023-01-17T14:31:00.979Z,98203.16
2023-01-17T14:33:37.335Z,98213.78
2023-01-17T14:36:28.034Z,98202.50
2023-01-17T14:38:54.983Z,98212.22
2023-01-17T14:41:29.364Z,98220.16
2023-01-17T14:43:59.491Z,98215.00
2023-01-17T14:46:34.156Z,98218.56
2023-01-17T14:49:16.515Z,98222.09
2023-01-17T14:51:43.327Z,98222.19
2023-01-17T14:54:21.917Z,98230.97
2023-01-17T14:56:48.669Z,98233.69
2023-01-17T14:59:22.287Z,98234.63
2023-01-17T15:02:07.104Z,98237.31
2023-01-17T15:04:39.013Z,98229.59
2023-01-17T15:07:05.836Z,98227.94
2023-01-17T15:09:36.518Z,98227.09
2023-01-17T15:12:04.084Z,98225.41
2023-01-17T15:14:39.959Z,98224.63
2023-01-17T15:17:17.543Z,98225.53
2023-01-17T15:19:48.361Z,98221.25
2023-01-17T15:22:16.180Z,98222.25
2023-01-17T15:24:44.632Z,98232.81
2023-01-17T15:27:16.847Z,98233.78
2023-01-17T15:29:45.506Z,98238.19
2023-01-17T15:32:32.675Z,98237.41
2023-01-17T15:35:02.413Z,98242.81
2023-01-17T15:37:40.487Z,98246.41
2023-01-17T15:40:23.781Z,98245.63
2023-01-17T15:43:00.810Z,98248.34
2023-01-17T15:45:31.077Z,98254.56
2023-01-17T15:48:18.411Z,98259.91
2023-01-17T15:50:45.568Z,98251.25
2023-01-17T15:53:32.081Z,98263.56
2023-01-17T15:56:00.172Z,98256.66
2023-01-17T15:58:30.033Z,98256.72
2023-01-17T16:00:57.273Z,98263.75
2023-01-17T16:03:29.302Z,98262.09
2023-01-17T16:06:00.025Z,98268.28
2023-01-17T16:08:39.766Z,98272.78
2023-01-17T16:11:08.424Z,98267.63
2023-01-17T16:13:39.099Z,98280.81
2023-01-17T16:16:22.312Z,98272.97
2023-01-17T16:19:00.211Z,98281.78
2023-01-17T16:21:32.553Z,98277.44
2023-01-17T16:24:00.423Z,98278.38
2023-01-17T16:26:28.985Z,98285.38
2023-01-17T16:28:55.791Z,98281.06
2023-01-17T16:31:22.631Z,98283.69
2023-01-17T16:33:51.178Z,98294.25
2023-01-17T16:36:20.667Z,98298.63
2023-01-17T16:38:51.469Z,98298.69
2023-01-17T16:41:19.239Z,98290.91
2023-01-17T16:43:48.101Z,98290.91
2023-01-17T16:46:15.493Z,98291.84
2023-01-17T16:48:42.307Z,98292.78
2023-01-17T16:51:09.095Z,98288.44
2023-01-17T16:53:36.990Z,98298.97
2023-01-17T16:56:12.140Z,98296.38
2023-01-17T16:58:39.422Z,98303.44
2023-01-17T17:01:15.961Z,98304.34
2023-01-17T17:03:43.931Z,98314.91
2023-01-17T17:06:11.517Z,98311.41
2023-01-17T17:08:39.542Z,98313.19
2023-01-17T17:11:23.034Z,98322.81
2023-01-17T17:13:51.369Z,98315.03
2023-01-17T17:16:22.044Z,98316.78
2023-01-17T17:19:02.271Z,98319.41
2023-01-17T17:21:33.234Z,98319.47
2023-01-17T17:24:01.420Z,98325.56
2023-01-17T17:26:34.914Z,98331.69
2023-01-17T17:29:05.285Z,98324.69
2023-01-17T17:31:32.467Z,98330.84
2023-01-17T17:34:00.996Z,98328.22
2023-01-17T17:36:28.307Z,98325.59
2023-01-17T17:38:56.776Z,98329.09
2023-01-17T17:41:33.133Z,98330.00
2023-01-17T17:44:04.120Z,98324.75
2023-01-17T17:46:33.559Z,98319.56
2023-01-17T17:49:01.239Z,98321.31
2023-01-17T17:51:30.545Z,98325.69
2023-01-17T17:54:17.743Z,98335.34
2023-01-17T17:56:47.183Z,98337.97
2023-01-17T17:59:18.346Z,98334.53
2023-01-17T18:01:46.422Z,98343.25
2023-01-17T18:04:14.101Z,98348.50
2023-01-17T18:06:41.737Z,98356.38
2023-01-17T18:09:10.763Z,98364.22
2023-01-17T18:11:40.020Z,98359.91
2023-01-17T18:14:11.269Z,98361.72
2023-01-17T18:16:41.786Z,98372.19
2023-01-17T18:19:33.603Z,98366.97
2023-01-17T18:22:00.485Z,98369.63
2023-01-17T18:24:27.707Z,98373.19
2023-01-17T18:26:57.188Z,98369.72
2023-01-17T18:29:26.103Z,98375.91
2023-01-17T18:31:54.270Z,98368.09
2023-01-17T18:34:26.912Z,98366.38
2023-01-17T18:36:53.934Z,98368.19
2023-01-17T18:39:25.217Z,98368.22
2023-01-17T18:41:52.496Z,98372.59
2023-01-17T18:44:21.931Z,98360.47
2023-01-17T18:46:50.712Z,98367.50
2023-01-17T18:49:19.183Z,98371.88
2023-01-17T18:51:50.271Z,98368.41
2023-01-17T18:54:18.534Z,98381.56
2023-01-17T18:56:45.330Z,98374.63
2023-01-17T18:59:13.886Z,98382.50
2023-01-17T19:01:44.441Z,98393.84
2023-01-17T19:04:13.326Z,98386.91
2023-01-17T19:06:43.517Z,98392.19
2023-01-17T19:09:12.744Z,98395.72
2023-01-17T19:11:39.964Z,98393.97
2023-01-17T19:14:07.309Z,98404.47
2023-01-17T19:16:40.659Z,98407.97
2023-01-17T19:19:11.478Z,98407.13
2023-01-17T19:21:38.442Z,98403.66
2023-01-17T19:24:06.827Z,98403.66
2023-01-17T19:26:34.051Z,98399.34
2023-01-17T19:29:02.604Z,98407.19
2023-01-17T19:31:31.640Z,98402.88
2023-01-17T19:33:59.713Z,98405.47
2023-01-17T19:36:32.143Z,98410.72
2023-01-17T19:39:04.778Z,98399.41
2023-01-17T19:41:34.173Z,98399.41
2023-01-17T19:44:04.624Z,98412.53
2023-01-17T19:46:32.336Z,98405.53
2023-01-17T19:48:59.740Z,98411.69
2023-01-17T19:51:28.258Z,98413.41
2023-01-17T19:53:55.245Z,98416.94
2023-01-17T19:56:24.849Z,98416.06
2023-01-17T19:58:52.283Z,98416.09
2023-01-17T20:01:28.309Z,98425.69
2023-01-17T20:03:57.610Z,98430.06
2023-01-17T20:06:34.484Z,98437.03
2023-01-17T20:09:01.727Z,98444.03
2023-01-17T20:11:29.106Z,98440.53
2023-01-17T20:13:58.531Z,98453.66
2023-01-17T20:16:27.847Z,98451.91
2023-01-17T20:18:54.844Z,98458.00
2023-01-17T20:21:25.477Z,98458.91
2023-01-17T20:23:54.265Z,98456.31
2023-01-17T20:26:25.052Z,98449.34
2023-01-17T20:28:53.231Z,98445.88
2023-01-17T20:31:24.057Z,98452.84
2023-01-17T20:33:54.155Z,98452.00
2023-01-17T20:36:23.669Z,98450.25
2023-01-17T20:38:50.899Z,98447.63
2023-01-17T20:41:29.967Z,98456.38
2023-01-17T20:43:59.191Z,98452.03
2023-01-17T20:46:35.320Z,98464.22
2023-01-17T20:49:05.319Z,98468.56
2023-01-17T20:51:34.366Z,98467.72
2023-01-17T20:54:04.802Z,98467.72
2023-01-17T20:56:34.681Z,98473.84
2023-01-17T20:59:03.906Z,98473.84
2023-01-17T21:01:31.790Z,98482.53
2023-01-17T21:03:58.723Z,98473.88
2023-01-17T21:06:25.677Z,98483.44
2023-01-17T21:08:52.865Z,98479.94
2023-01-17T21:11:24.522Z,98484.34
2023-01-17T21:13:52.394Z,98486.94
2023-01-17T21:16:22.868Z,98481.72
2023-01-17T21:18:51.480Z,98479.97
2023-01-17T21:21:21.966Z,98475.63
2023-01-17T21:23:50.899Z,98475.66
2023-01-17T21:26:19.378Z,98480.00
2023-01-17T21:28:47.902Z,98479.13
2023-01-17T21:31:25.712Z,98482.63
2023-01-17T21:33:59.116Z,98477.41
2023-01-17T21:36:30.843Z,98477.41
2023-01-17T21:38:59.636Z,98483.50
2023-01-17T21:41:29.078Z,98481.75
2023-01-17T21:43:59.075Z,98483.50
2023-01-17T21:46:28.299Z,98480.91
2023-01-17T21:48:56.699Z,98496.56
2023-01-17T21:51:24.208Z,98494.84
2023-01-17T21:53:51.106Z,98503.53
2023-01-17T21:56:36.233Z,98497.44
2023-01-17T21:59:03.076Z,98507.91
2023-01-17T22:01:33.194Z,98511.38
2023-01-17T22:04:02.801Z,98510.53
2023-01-17T22:06:38.454Z,98515.72
2023-01-17T22:09:05.800Z,98519.22
2023-01-17T22:11:32.667Z,98528.78
2023-01-17T22:13:59.577Z,98527.06
2023-01-17T22:16:26.481Z,98532.28
2023-01-17T22:18:53.281Z,98539.22
2023-01-17T22:21:26.361Z,98538.34
2023-01-17T22:23:58.897Z,98541.84
2023-01-17T22:26:30.801Z,98544.44
2023-01-17T22:29:02.249Z,98546.22
2023-01-17T22:31:29.080Z,98547.09
2023-01-17T22:34:02.251Z,98549.66
2023-01-17T22:36:32.082Z,98553.16
2023-01-17T22:38:59.016Z,98560.13
2023-01-17T22:41:29.747Z,98557.53
2023-01-17T22:43:59.302Z,98565.34
2023-01-17T22:46:29.356Z,98572.31
2023-01-17T22:48:56.876Z,98570.56
2023-01-17T22:51:26.061Z,98571.44
2023-01-17T22:53:56.138Z,98571.44
2023-01-17T22:56:27.915Z,98574.03
2023-01-17T22:58:54.756Z,98578.38
2023-01-17T23:01:25.464Z,98576.66
2023-01-17T23:03:56.126Z,98574.03
2023-01-17T23:06:27.673Z,98561.00
2023-01-17T23:08:57.350Z,98561.00
2023-01-17T23:11:38.970Z,98562.72
2023-01-17T23:14:09.403Z,98569.69
2023-01-17T23:16:57.385Z,98567.06
2023-01-17T23:19:27.002Z,98581.88
2023-01-17T23:22:17.316Z,98585.34
2023-01-17T23:24:53.551Z,98589.66
2023-01-17T23:27:55.489Z,98596.63
2023-01-17T23:30:29.108Z,98594.88
2023-01-17T23:32:59.454Z,98588.78
2023-01-17T23:35:29.947Z,98584.44
2023-01-17T23:38:15.733Z,98586.19
2023-01-17T23:40:43.618Z,98594.00
2023-01-17T23:43:23.184Z,98589.63
2023-01-17T23:45:51.946Z,98596.59
2023-01-17T23:48:20.530Z,98594.00
2023-01-17T23:50:48.412Z,98585.28
2023-01-17T23:53:22.313Z,98588.75
2023-01-17T23:55:52.460Z,98582.66
2023-01-17T23:58:21.789Z,98583.53
